Time;durP1;ratioP1;P1;durP2;ratioP2;P2;SDS_P1;SDS_P2;PMS_P1;PMS_P2;Temp;Humidity;BMP_temperature;BMP_pressure;BME280_temperature;BME280_humidity;BME280_pressure;Samples;Min_cycle;Max_cycle;Signal;HPM_P1;HPM_P2
2023/10/19 00:00:21;;;;;;;;;;;;;;;9.89;100.00;99291.72;5030799;28;19925;-71
2023/10/19 00:02:51;;;;;;;;;;;;;;;9.91;100.00;99299.59;5015730;28;19947;-72
2023/10/19 00:05:16;;;;;;;;;;;;;;;9.92;100.00;99298.59;5029723;28;19981;-72
2023/10/19 00:07:41;;;;;;;;;;;;;;;9.93;100.00;99291.41;5027893;28;20378;-71
2023/10/19 00:10:07;;;;;;;;;;;;;;;9.93;100.00;99297.59;5026485;28;19949;-73
2023/10/19 00:12:32;;;;;;;;;;;;;;;9.90;100.00;99281.81;5014945;28;19956;-71
2023/10/19 00:14:57;;;;;;;;;;;;;;;9.96;100.00;99293.75;5016797;28;20002;-73
2023/10/19 00:17:26;;;;;;;;;;;;;;;9.97;100.00;99293.63;5028807;28;20090;-72
2023/10/19 00:20:09;;;;;;;;;;;;;;;9.96;100.00;99289.25;5029487;28;20450;-71
2023/10/19 00:22:36;;;;;;;;;;;;;;;10.01;100.00;99289.63;5014124;28;20013;-72
2023/10/19 00:25:03;;;;;;;;;;;;;;;10.04;100.00;99283.13;5014698;28;19925;-73
2023/10/19 00:27:28;;;;;;;;;;;;;;;10.03;100.00;99284.09;5012544;28;19929;-73
2023/10/19 00:29:56;;;;;;;;;;;;;;;10.05;100.00;99285.66;5034285;28;19925;-70
2023/10/19 00:32:24;;;;;;;;;;;;;;;10.06;100.00;99289.16;5014747;28;19940;-71
2023/10/19 00:34:53;;;;;;;;;;;;;;;10.07;100.00;99288.16;5014970;28;19928;-70
2023/10/19 00:37:25;;;;;;;;;;;;;;;10.11;100.00;99296.75;5012531;28;20136;-72
2023/10/19 00:39:54;;;;;;;;;;;;;;;10.10;100.00;99295.91;5014529;28;19921;-71
2023/10/19 00:42:24;;;;;;;;;;;;;;;10.12;100.00;99295.75;5014117;28;20129;-71
2023/10/19 00:44:59;;;;;;;;;;;;;;;10.15;100.00;99308.84;5020994;28;20408;-71
2023/10/19 00:47:24;;;;;;;;;;;;;;;10.15;100.00;99315.06;5024870;28;19921;-75
2023/10/19 00:49:50;;;;;;;;;;;;;;;10.18;100.00;99304.03;5016476;28;20438;-71
2023/10/19 00:52:23;;;;;;;;;;;;;;;10.19;100.00;99286.94;5031299;28;20422;-69
2023/10/19 00:57:14;;;;;;;;;;;;;;;10.33;100.00;99280.16;5012664;28;20303;-71
2023/10/19 00:59:43;;;;;;;;;;;;;;;10.31;100.00;99281.31;5034393;28;19921;-71
2023/10/19 01:04:50;;;;;;;;;;;;;;;10.39;100.00;99262.63;5024728;28;19971;-70
2023/10/19 01:07:22;;;;;;;;;;;;;;;10.42;100.00;99261.47;5025974;28;20449;-70
2023/10/19 01:09:47;;;;;;;;;;;;;;;10.47;100.00;99262.69;5025333;28;20147;-71
2023/10/19 01:15:06;;;;;;;;;;;;;;;10.54;100.00;99273.63;5026259;28;19991;-70
2023/10/19 01:17:31;;;;;;;;;;;;;;;10.55;100.00;99259.22;5014900;28;19925;-70
2023/10/19 01:19:58;;;;;;;;;;;;;;;10.61;100.00;99260.44;5023562;28;19994;-71
2023/10/19 01:22:26;;;;;;;;;;;;;;;10.65;100.00;99259.94;5022521;28;19921;-71
2023/10/19 01:24:53;;;;;;;;;;;;;;;10.69;100.00;99257.81;5024310;28;19933;-71
2023/10/19 01:27:18;;;;;;;;;;;;;;;10.77;100.00;99246.25;5024204;28;20382;-71
2023/10/19 01:29:43;;;;;;;;;;;;;;;10.80;100.00;99246.75;5025779;28;19925;-70
2023/10/19 01:32:08;;;;;;;;;;;;;;;10.82;100.00;99241.25;5025748;28;19921;-69
2023/10/19 01:34:37;;;;;;;;;;;;;;;10.87;100.00;99228.16;5024917;28;19932;-70
2023/10/19 01:37:03;;;;;;;;;;;;;;;10.91;100.00;99234.06;5030052;28;19962;-70
2023/10/19 01:39:30;;;;;;;;;;;;;;;11.00;100.00;99232.25;5026579;28;19921;-69
2023/10/19 01:41:57;;;;;;;;;;;;;;;11.07;100.00;99226.06;5025043;28;19943;-70
2023/10/19 01:44:22;;;;;;;;;;;;;;;11.14;100.00;99226.25;5025050;28;19921;-70
2023/10/19 01:46:48;;;;;;;;;;;;;;;11.25;100.00;99223.28;5040714;28;20019;-71
2023/10/19 01:49:13;;;;;;;;;;;;;;;11.37;100.00;99214.94;5024888;28;19921;-70
2023/10/19 01:51:39;;;;;;;;;;;;;;;11.41;100.00;99200.13;5041284;28;19920;-71
2023/10/19 01:54:06;;;;;;;;;;;;;;;11.49;100.00;99189.41;5025496;28;19921;-72
2023/10/19 01:56:33;;;;;;;;;;;;;;;11.50;100.00;99185.72;5026111;28;20330;-69
2023/10/19 01:58:59;;;;;;;;;;;;;;;11.55;100.00;99187.88;5027552;28;19943;-71
2023/10/19 02:03:58;;;;;;;;;;;;;;;11.63;100.00;99171.78;5016549;28;19970;-71
2023/10/19 02:06:42;;;;;;;;;;;;;;;11.63;100.00;99171.78;5017461;28;20493;-71
2023/10/19 02:09:17;;;;;;;;;;;;;;;11.70;100.00;99164.72;5016860;28;20280;-72
2023/10/19 02:11:42;;;;;;;;;;;;;;;11.67;100.00;99170.44;5031188;28;20401;-71
2023/10/19 02:14:14;;;;;;;;;;;;;;;11.72;100.00;99169.09;5014359;28;19921;-70
2023/10/19 02:16:39;;;;;;;;;;;;;;;11.73;100.00;99170.78;5016643;28;19996;-70
2023/10/19 02:19:04;;;;;;;;;;;;;;;11.78;100.00;99161.19;5015213;28;19921;-71
2023/10/19 02:21:30;;;;;;;;;;;;;;;11.87;100.00;99155.81;5016009;28;19943;-71
2023/10/19 02:23:57;;;;;;;;;;;;;;;11.93;100.00;99164.03;5016383;28;19921;-71
2023/10/19 02:26:22;;;;;;;;;;;;;;;12.03;100.00;99163.06;5016953;28;19931;-70
2023/10/19 02:28:50;;;;;;;;;;;;;;;12.00;100.00;99167.78;5026790;28;19922;-71
2023/10/19 02:31:18;;;;;;;;;;;;;;;11.99;100.00;99166.09;5016704;28;19928;-69
2023/10/19 02:33:45;;;;;;;;;;;;;;;11.89;100.00;99143.88;5016292;28;19921;-70
2023/10/19 02:36:12;;;;;;;;;;;;;;;11.93;100.00;99165.88;5017381;28;19921;-69
2023/10/19 02:38:38;;;;;;;;;;;;;;;11.93;100.00;99163.19;5019433;28;19916;-71
2023/10/19 02:41:03;;;;;;;;;;;;;;;11.99;100.00;99158.03;5016650;28;19932;-72
2023/10/19 02:43:32;;;;;;;;;;;;;;;12.06;100.00;99157.31;5015411;28;19951;-68
2023/10/19 02:45:57;;;;;;;;;;;;;;;12.01;100.00;99171.28;5012515;28;19964;-71
2023/10/19 02:48:24;;;;;;;;;;;;;;;12.02;100.00;99170.28;5015769;28;20821;-69
2023/10/19 02:50:49;;;;;;;;;;;;;;;12.05;100.00;99169.94;5016808;28;19964;-70
2023/10/19 02:53:14;;;;;;;;;;;;;;;12.08;100.00;99169.59;5013275;28;20048;-69
2023/10/19 02:55:40;;;;;;;;;;;;;;;12.12;100.00;99167.41;5016506;28;20354;-69
2023/10/19 02:58:05;;;;;;;;;;;;;;;12.16;100.00;99160.66;5013193;28;19921;-69
2023/10/19 03:00:34;;;;;;;;;;;;;;;12.24;100.00;99165.19;5016790;28;19962;-69
2023/10/19 03:03:00;;;;;;;;;;;;;;;12.28;100.00;99161.16;5015998;28;20401;-69
2023/10/19 03:05:26;;;;;;;;;;;;;;;12.35;100.00;99155.91;5015970;28;20027;-69
2023/10/19 03:07:52;;;;;;;;;;;;;;;12.34;100.00;99152.41;5013308;28;20418;-69
2023/10/19 03:10:24;;;;;;;;;;;;;;;12.39;100.00;99146.47;5016544;28;20245;-69
2023/10/19 03:12:50;;;;;;;;;;;;;;;12.32;100.00;99167.00;5014057;28;19921;-70
2023/10/19 03:15:15;;;;;;;;;;;;;;;12.32;100.00;99161.63;5016224;28;19921;-69
2023/10/19 03:17:41;;;;;;;;;;;;;;;12.36;100.00;99160.28;5014358;28;19975;-70
2023/10/19 03:20:07;;;;;;;;;;;;;;;12.41;100.00;99169.53;5015681;28;19975;-69
2023/10/19 03:22:33;;;;;;;;;;;;;;;12.42;100.00;99165.84;5013771;28;20023;-68
2023/10/19 03:27:44;;;;;;;;;;;;;;;12.53;100.00;99175.41;5013560;28;19960;-70
2023/10/19 03:30:14;;;;;;;;;;;;;;;12.58;100.00;99180.25;5014307;28;20258;-69
2023/10/19 03:32:40;;;;;;;;;;;;;;;12.60;100.00;99180.91;5030055;28;19922;-69
2023/10/19 03:35:06;;;;;;;;;;;;;;;12.63;100.00;99180.56;5030780;28;19917;-70
2023/10/19 03:37:31;;;;;;;;;;;;;;;12.59;100.00;99174.69;5027004;28;20378;-70
2023/10/19 03:39:57;;;;;;;;;;;;;;;12.59;100.00;99168.47;5016294;28;19925;-69
2023/10/19 03:42:25;;;;;;;;;;;;;;;12.59;100.00;99169.28;5033145;28;19959;-69
2023/10/19 03:44:53;;;;;;;;;;;;;;;12.59;100.00;99166.59;5014722;28;19932;-69
2023/10/19 03:47:19;;;;;;;;;;;;;;;12.62;100.00;99167.25;5014882;28;20460;-70
2023/10/19 03:49:46;;;;;;;;;;;;;;;12.53;100.00;99169.16;5017735;28;20039;-69
2023/10/19 03:54:40;;;;;;;;;;;;;;;12.54;100.00;99160.91;5017976;28;20251;-70
2023/10/19 03:57:12;;;;;;;;;;;;;;;12.48;100.00;99164.31;5027822;28;19928;-69
2023/10/19 03:59:38;;;;;;;;;;;;;;;12.51;100.00;99155.03;5012141;28;19963;-69
2023/10/19 04:02:09;;;;;;;;;;;;;;;12.52;100.00;99157.56;5015341;28;19921;-69
2023/10/19 04:04:34;;;;;;;;;;;;;;;12.54;100.00;99152.00;5014661;28;19925;-69
2023/10/19 04:06:59;;;;;;;;;;;;;;;12.55;100.00;99156.38;5029163;28;19925;-68
2023/10/19 04:09:29;;;;;;;;;;;;;;;12.56;100.00;99152.66;5013247;28;19921;-70
2023/10/19 04:11:56;;;;;;;;;;;;;;;12.56;100.00;99155.34;5015537;28;19921;-69
2023/10/19 04:14:21;;;;;;;;;;;;;;;12.57;100.00;99149.81;5028806;28;20101;-69
2023/10/19 04:16:48;;;;;;;;;;;;;;;12.57;100.00;99144.44;5015050;28;19917;-70
2023/10/19 04:19:14;;;;;;;;;;;;;;;12.53;100.00;99147.63;5014023;28;19928;-69
2023/10/19 04:21:43;;;;;;;;;;;;;;;12.49;100.00;99144.44;5013655;28;19921;-69
2023/10/19 04:24:09;;;;;;;;;;;;;;;12.48;100.00;99153.53;5014841;28;19929;-69
2023/10/19 04:26:37;;;;;;;;;;;;;;;12.47;100.00;99146.47;5017986;28;19928;-69
2023/10/19 04:29:10;;;;;;;;;;;;;;;12.44;100.00;99157.56;5017866;28;19917;-69
2023/10/19 04:31:37;;;;;;;;;;;;;;;12.34;100.00;99154.22;5032236;28;20215;-69
2023/10/19 04:34:07;;;;;;;;;;;;;;;12.30;100.00;99154.59;5016814;28;20367;-69
2023/10/19 04:36:33;;;;;;;;;;;;;;;12.23;100.00;99148.22;5015885;28;20303;-69
2023/10/19 04:38:59;;;;;;;;;;;;;;;12.15;100.00;99157.16;5017675;28;19920;-69
2023/10/19 04:41:27;;;;;;;;;;;;;;;12.15;100.00;99159.00;5014044;28;20144;-69
2023/10/19 04:43:52;;;;;;;;;;;;;;;12.06;100.00;99146.56;5032793;28;20423;-69
2023/10/19 04:46:18;;;;;;;;;;;;;;;11.96;100.00;99149.41;5017913;28;19956;-68
2023/10/19 04:48:43;;;;;;;;;;;;;;;11.98;100.00;99153.63;5017222;28;20054;-69
2023/10/19 04:51:09;;;;;;;;;;;;;;;11.90;100.00;99150.94;5017917;28;20015;-70
2023/10/19 04:53:35;;;;;;;;;;;;;;;11.97;100.00;99156.47;5016673;28;19921;-69
2023/10/19 04:56:00;;;;;;;;;;;;;;;12.01;100.00;99157.84;5031811;28;19960;-69
2023/10/19 04:58:27;;;;;;;;;;;;;;;12.04;100.00;99162.06;5019668;28;19927;-69
2023/10/19 05:00:53;;;;;;;;;;;;;;;11.99;100.00;99160.72;5024686;28;20016;-69
2023/10/19 05:03:18;;;;;;;;;;;;;;;11.95;100.00;99159.34;5042118;28;20526;-69
2023/10/19 05:05:44;;;;;;;;;;;;;;;11.96;100.00;99155.63;5027077;28;19947;-68
2023/10/19 05:08:09;;;;;;;;;;;;;;;12.01;100.00;99163.22;5028436;28;19927;-69
2023/10/19 05:10:34;;;;;;;;;;;;;;;12.06;100.00;99155.47;5026760;28;22467;-69
2023/10/19 05:12:59;;;;;;;;;;;;;;;12.08;100.00;99152.59;5030986;28;20410;-70
2023/10/19 05:15:24;;;;;;;;;;;;;;;12.07;100.00;99151.78;5026445;28;21117;-71
2023/10/19 05:17:50;;;;;;;;;;;;;;;12.11;100.00;99160.34;5027049;28;20367;-69
2023/10/19 05:20:15;;;;;;;;;;;;;;;12.10;100.00;99155.97;5008540;28;20524;-69
2023/10/19 05:22:40;;;;;;;;;;;;;;;12.15;100.00;99161.69;5040193;28;19921;-69
2023/10/19 05:25:07;;;;;;;;;;;;;;;12.12;100.00;99162.88;5012981;28;19932;-70
2023/10/19 05:27:32;;;;;;;;;;;;;;;12.20;100.00;99159.31;5030456;28;19959;-69
2023/10/19 05:29:58;;;;;;;;;;;;;;;12.22;100.00;99154.63;5010912;28;19925;-69
2023/10/19 05:32:24;;;;;;;;;;;;;;;12.25;100.00;99156.09;5036239;28;19964;-71
2023/10/19 05:34:49;;;;;;;;;;;;;;;12.38;100.00;99148.34;5030744;28;20043;-70
2023/10/19 05:37:16;;;;;;;;;;;;;;;12.44;100.00;99146.81;5020055;28;20824;-69
2023/10/19 05:39:42;;;;;;;;;;;;;;;12.43;100.00;99154.06;5018676;28;20470;-70
2023/10/19 05:42:07;;;;;;;;;;;;;;;12.51;100.00;99155.03;5016824;28;20935;-70
2023/10/19 05:44:32;;;;;;;;;;;;;;;12.47;100.00;99157.25;5019112;28;19940;-70
2023/10/19 05:46:58;;;;;;;;;;;;;;;12.49;100.00;99157.03;5015425;28;19968;-68
2023/10/19 05:49:23;;;;;;;;;;;;;;;12.52;100.00;99148.63;5016835;28;20283;-69
2023/10/19 05:51:49;;;;;;;;;;;;;;;12.55;100.00;99151.84;5016446;28;19925;-70
2023/10/19 05:54:14;;;;;;;;;;;;;;;12.58;100.00;99154.16;5029805;28;20339;-71
2023/10/19 05:56:39;;;;;;;;;;;;;;;12.62;100.00;99160.03;5013542;28;19920;-70
2023/10/19 05:59:06;;;;;;;;;;;;;;;12.57;100.00;99174.03;5016508;28;19928;-73
2023/10/19 06:01:31;;;;;;;;;;;;;;;12.58;100.00;99167.59;5014172;28;20004;-69
2023/10/19 06:03:56;;;;;;;;;;;;;;;12.64;100.00;99162.56;5014408;28;19941;-72
2023/10/19 06:06:22;;;;;;;;;;;;;;;12.66;100.00;99168.59;5012986;28;19925;-70
2023/10/19 06:08:47;;;;;;;;;;;;;;;12.65;100.00;99170.47;5013037;28;20025;-70
2023/10/19 06:11:13;;;;;;;;;;;;;;;12.78;100.00;99174.44;5028080;28;20039;-70
2023/10/19 06:13:38;;;;;;;;;;;;;;;12.79;100.00;99179.69;5013103;28;19921;-72
2023/10/19 06:16:03;;;;;;;;;;;;;;;12.79;100.00;99184.19;5014535;28;19967;-70
2023/10/19 06:18:29;;;;;;;;;;;;;;;12.75;100.00;99184.56;5015215;28;20712;-71
2023/10/19 06:20:54;;;;;;;;;;;;;;;12.76;100.00;99190.78;5012699;28;20046;-71
2023/10/19 06:23:20;;;;;;;;;;;;;;;12.77;100.00;99191.63;5017067;28;19956;-70
2023/10/19 06:25:45;;;;;;;;;;;;;;;12.81;100.00;99199.19;5016678;28;20371;-70
2023/10/19 06:28:13;;;;;;;;;;;;;;;12.83;100.00;99199.00;5014476;28;20384;-70
2023/10/19 06:30:40;;;;;;;;;;;;;;;12.81;100.00;99209.97;5029488;28;19982;-72
2023/10/19 06:33:05;;;;;;;;;;;;;;;12.80;100.00;99205.59;5012431;28;20371;-71
2023/10/19 06:35:33;;;;;;;;;;;;;;;12.83;100.00;99202.56;5015965;28;19924;-70
2023/10/19 06:38:03;;;;;;;;;;;;;;;12.88;100.00;99212.78;5011825;28;20012;-71
2023/10/19 06:40:29;;;;;;;;;;;;;;;12.89;100.00;99217.16;5012857;28;19983;-69
2023/10/19 06:42:55;;;;;;;;;;;;;;;12.93;100.00;99221.19;5015594;28;20009;-71
2023/10/19 06:45:21;;;;;;;;;;;;;;;12.92;100.00;99229.44;5009613;28;20027;-70
2023/10/19 06:47:46;;;;;;;;;;;;;;;12.89;100.00;99227.94;5012916;28;20012;-69
2023/10/19 06:50:12;;;;;;;;;;;;;;;12.81;100.00;99230.66;5012957;28;20035;-70
2023/10/19 06:52:38;;;;;;;;;;;;;;;12.83;100.00;99234.88;5009254;28;19925;-70
2023/10/19 06:55:04;;;;;;;;;;;;;;;12.83;100.00;99237.56;5016056;28;20007;-68
2023/10/19 06:57:29;;;;;;;;;;;;;;;12.81;100.00;99247.66;5007889;28;19921;-70
2023/10/19 06:59:54;;;;;;;;;;;;;;;12.84;100.00;99243.78;5012162;28;19936;-72
2023/10/19 07:02:20;;;;;;;;;;;;;;;12.88;100.00;99243.25;5011504;28;19964;-71
2023/10/19 07:04:46;;;;;;;;;;;;;;;12.89;100.00;99258.41;5014912;28;19928;-71
2023/10/19 07:07:13;;;;;;;;;;;;;;;12.88;100.00;99264.78;5011271;28;19921;-71
2023/10/19 07:09:38;;;;;;;;;;;;;;;12.89;100.00;99266.47;5015119;28;19925;-70
2023/10/19 07:12:04;;;;;;;;;;;;;;;12.97;100.00;99260.25;5011951;28;19927;-69
2023/10/19 07:14:30;;;;;;;;;;;;;;;12.93;100.00;99261.59;5015596;28;20012;-70
2023/10/19 07:16:55;;;;;;;;;;;;;;;12.95;100.00;99272.19;5020968;28;19928;-69
2023/10/19 07:19:21;;;;;;;;;;;;;;;12.98;100.00;99269.16;5017836;28;19924;-69
2023/10/19 07:21:48;;;;;;;;;;;;;;;13.02;100.00;99275.88;5022128;28;20071;-70
2023/10/19 07:24:14;;;;;;;;;;;;;;;13.01;100.00;99280.41;5018919;28;19925;-69
2023/10/19 07:26:53;;;;;;;;;;;;;;;13.01;100.00;99284.97;5013251;28;20222;-69
2023/10/19 07:29:19;;;;;;;;;;;;;;;13.12;100.00;99289.13;5014726;28;19928;-69
2023/10/19 07:31:44;;;;;;;;;;;;;;;13.08;100.00;99294.06;5012669;28;19921;-70
2023/10/19 07:34:12;;;;;;;;;;;;;;;13.23;100.00;99290.63;5013475;28;20646;-69
2023/10/19 07:36:38;;;;;;;;;;;;;;;13.14;100.00;99287.13;5012036;28;20250;-70
2023/10/19 07:39:03;;;;;;;;;;;;;;;13.26;100.00;99287.56;5014013;28;20409;-69
2023/10/19 07:41:33;;;;;;;;;;;;;;;13.27;100.00;99295.47;5015686;28;20364;-69
2023/10/19 07:43:58;;;;;;;;;;;;;;;13.38;100.00;99294.25;5028653;28;20044;-70
2023/10/19 07:46:23;;;;;;;;;;;;;;;13.39;100.00;99289.69;5013124;28;19925;-70
2023/10/19 07:48:49;;;;;;;;;;;;;;;13.40;100.00;99299.47;5027591;28;20339;-70
2023/10/19 07:51:14;;;;;;;;;;;;;;;13.38;100.00;99290.72;5013617;28;21114;-69
2023/10/19 07:53:39;;;;;;;;;;;;;;;13.42;100.00;99298.28;5012656;28;20379;-69
2023/10/19 07:56:05;;;;;;;;;;;;;;;13.42;100.00;99292.09;5014492;28;19971;-70
2023/10/19 07:58:31;;;;;;;;;;;;;;;13.46;100.00;99290.72;5014158;28;19921;-70
2023/10/19 08:00:56;;;;;;;;;;;;;;;13.47;100.00;99289.69;5015655;28;19925;-71
2023/10/19 08:03:21;;;;;;;;;;;;;;;13.48;100.00;99284.13;5011527;28;19921;-69
2023/10/19 08:05:47;;;;;;;;;;;;;;;13.55;100.00;99280.72;5013883;28;19990;-69
2023/10/19 08:08:12;;;;;;;;;;;;;;;13.58;100.00;99283.91;5013399;28;20051;-69
2023/10/19 08:10:37;;;;;;;;;;;;;;;13.57;100.00;99293.00;5029075;28;19929;-70
2023/10/19 08:13:03;;;;;;;;;;;;;;;13.60;100.00;99289.94;5015310;28;19983;-70
2023/10/19 08:15:31;;;;;;;;;;;;;;;13.65;100.00;99284.88;5012441;28;19928;-70
2023/10/19 08:17:56;;;;;;;;;;;;;;;13.69;100.00;99284.53;5013005;28;19966;-69
2023/10/19 08:20:27;;;;;;;;;;;;;;;13.74;100.00;99274.88;5014763;28;19920;-69
2023/10/19 08:22:58;;;;;;;;;;;;;;;13.82;100.00;99267.75;5025779;28;19955;-69
2023/10/19 08:25:26;;;;;;;;;;;;;;;13.92;100.00;99273.72;5013792;28;19932;-70
2023/10/19 08:27:56;;;;;;;;;;;;;;;13.99;100.00;99269.28;5024083;28;20396;-69
2023/10/19 08:30:21;;;;;;;;;;;;;;;13.99;100.00;99261.19;5027605;28;19953;-69
2023/10/19 08:32:47;;;;;;;;;;;;;;;14.05;100.00;99263.19;5031290;28;20707;-69
2023/10/19 08:35:14;;;;;;;;;;;;;;;14.03;100.00;99257.13;5015727;28;19921;-69
2023/10/19 08:37:39;;;;;;;;;;;;;;;14.08;100.00;99270.06;5008989;28;20284;-69
2023/10/19 08:40:05;;;;;;;;;;;;;;;14.09;100.00;99269.03;5011389;28;19925;-69
2023/10/19 08:42:31;;;;;;;;;;;;;;;14.14;100.00;99273.91;5012771;28;20313;-69
2023/10/19 08:44:59;;;;;;;;;;;;;;;14.12;100.00;99266.00;5012579;28;20600;-69
2023/10/19 08:47:25;;;;;;;;;;;;;;;14.16;100.00;99267.31;5013206;28;20446;-69
2023/10/19 08:49:51;;;;;;;;;;;;;;;14.17;100.00;99263.59;5013551;28;19948;-69
2023/10/19 08:52:16;;;;;;;;;;;;;;;14.24;100.00;99258.28;5028230;28;19928;-70
2023/10/19 08:54:42;;;;;;;;;;;;;;;14.30;100.00;99257.56;5026551;28;20284;-70
2023/10/19 08:57:08;;;;;;;;;;;;;;;14.35;100.00;99259.72;5013532;28;19979;-70
2023/10/19 08:59:34;;;;;;;;;;;;;;;14.43;100.00;99264.22;5031275;28;19920;-70
2023/10/19 09:02:02;;;;;;;;;;;;;;;14.48;100.00;99268.03;5012960;28;20322;-69
2023/10/19 09:04:28;;;;;;;;;;;;;;;14.55;100.00;99255.50;5013222;28;19947;-71
2023/10/19 09:06:55;;;;;;;;;;;;;;;14.64;100.00;99253.53;5024268;28;20415;-69
2023/10/19 09:09:20;;;;;;;;;;;;;;;14.82;100.00;99265.88;4998670;28;19921;-69
2023/10/19 09:11:48;;;;;;;;;;;;;;;15.04;100.00;99255.13;5013946;28;19982;-69
2023/10/19 09:14:14;;;;;;;;;;;;;;;15.24;100.00;99253.53;5015664;28;19943;-70
2023/10/19 09:16:57;;;;;;;;;;;;;;;15.45;100.00;99251.91;5014531;28;20325;-70
2023/10/19 09:19:42;;;;;;;;;;;;;;;15.75;100.00;99243.72;5029917;28;19988;-69
2023/10/19 09:22:08;;;;;;;;;;;;;;;15.86;100.00;99248.63;5015712;28;19920;-70
2023/10/19 09:24:37;;;;;;;;;;;;;;;15.89;100.00;99248.25;5030239;28;19924;-71
2023/10/19 09:27:02;;;;;;;;;;;;;;;15.90;100.00;99238.25;5029144;28;20368;-70
2023/10/19 09:29:28;;;;;;;;;;;;;;;16.06;100.00;99230.91;5029873;28;19923;-69
2023/10/19 09:31:56;;;;;;;;;;;;;;;16.24;100.00;99225.03;5014725;28;19941;-71
2023/10/19 09:34:22;;;;;;;;;;;;;;;16.46;100.00;99225.78;5016842;28;20295;-71
2023/10/19 09:36:47;;;;;;;;;;;;;;;16.60;100.00;99210.47;5031448;28;19921;-70
2023/10/19 09:39:12;;;;;;;;;;;;;;;16.61;100.00;99201.31;5013764;28;19924;-71
2023/10/19 09:41:37;;;;;;;;;;;;;;;16.63;100.00;99204.66;5012989;28;19972;-71
2023/10/19 09:44:06;;;;;;;;;;;;;;;16.69;100.00;99198.44;5029543;28;20068;-71
2023/10/19 09:46:32;;;;;;;;;;;;;;;16.92;100.00;99198.16;5029111;28;19920;-70
2023/10/19 09:48:58;;;;;;;;;;;;;;;16.89;100.00;99195.84;5017117;28;19917;-71
2023/10/19 09:51:24;;;;;;;;;;;;;;;16.74;100.00;99208.66;5026569;28;19979;-71
2023/10/19 09:53:51;;;;;;;;;;;;;;;17.07;100.00;99206.19;5031342;28;20403;-70
2023/10/19 09:56:21;;;;;;;;;;;;;;;16.94;100.00;99208.78;5031935;28;19975;-72
2023/10/19 09:58:48;;;;;;;;;;;;;;;16.87;100.00;99199.78;5011611;28;19918;-71
2023/10/19 10:01:14;;;;;;;;;;;;;;;16.99;100.00;99200.06;5011746;28;19925;-73
2023/10/19 10:03:51;;;;;;;;;;;;;;;17.41;100.00;99200.88;5033627;28;19921;-70
2023/10/19 10:06:20;;;;;;;;;;;;;;;16.99;100.00;99194.66;5014604;28;20420;-71
2023/10/19 10:08:45;;;;;;;;;;;;;;;16.94;100.00;99192.53;5028628;28;20427;-68
2023/10/19 10:11:18;;;;;;;;;;;;;;;17.04;100.00;99187.59;5015399;28;19928;-67
2023/10/19 10:13:45;;;;;;;;;;;;;;;17.06;100.00;99190.94;5027178;28;19974;-68
2023/10/19 10:16:11;;;;;;;;;;;;;;;17.05;100.00;99189.28;5011626;28;19971;-68
2023/10/19 10:18:37;;;;;;;;;;;;;;;16.99;100.00;99189.22;5013232;28;20171;-67
2023/10/19 10:21:08;;;;;;;;;;;;;;;16.99;100.00;99190.06;5015745;28;19917;-66
2023/10/19 10:23:35;;;;;;;;;;;;;;;17.00;100.00;99185.47;5010034;28;19917;-66
2023/10/19 10:26:00;;;;;;;;;;;;;;;17.19;100.00;99178.47;5009800;28;19961;-67
2023/10/19 10:28:28;;;;;;;;;;;;;;;17.21;100.00;99176.38;5013086;28;19972;-66
2023/10/19 10:31:08;;;;;;;;;;;;;;;17.09;100.00;99163.41;5012541;28;20308;-71
2023/10/19 10:33:45;;;;;;;;;;;;;;;16.97;100.00;99159.63;5015862;28;19917;-71
2023/10/19 10:36:11;;;;;;;;;;;;;;;16.98;100.00;99163.16;5012427;28;20473;-69
2023/10/19 10:38:36;;;;;;;;;;;;;;;16.89;100.00;99168.75;5025748;28;19917;-71
2023/10/19 10:41:01;;;;;;;;;;;;;;;16.82;100.00;99167.03;5012465;28;19926;-71
2023/10/19 10:43:27;;;;;;;;;;;;;;;16.94;100.00;99166.25;5013541;28;19931;-70
2023/10/19 10:45:52;;;;;;;;;;;;;;;17.06;100.00;99171.13;5028991;28;20049;-71
2023/10/19 10:48:22;;;;;;;;;;;;;;;17.31;100.00;99167.84;5027811;28;20284;-71
2023/10/19 10:50:47;;;;;;;;;;;;;;;17.60;100.00;99165.81;5013852;28;20483;-72
2023/10/19 10:53:13;;;;;;;;;;;;;;;17.74;100.00;99169.41;5008979;28;19921;-70
2023/10/19 10:55:39;;;;;;;;;;;;;;;18.02;100.00;99166.50;5029337;28;20450;-72
2023/10/19 10:58:04;;;;;;;;;;;;;;;18.31;100.00;99164.38;5007898;28;19928;-70
2023/10/19 11:00:32;;;;;;;;;;;;;;;18.36;100.00;99164.59;5027054;28;19920;-72
2023/10/19 11:03:03;;;;;;;;;;;;;;;18.49;100.00;99169.16;5011346;28;20312;-70
2023/10/19 11:05:29;;;;;;;;;;;;;;;18.33;100.00;99161.47;5015456;28;19980;-70
2023/10/19 11:08:16;;;;;;;;;;;;;;;18.40;100.00;99151.44;5028390;28;19925;-72
2023/10/19 11:10:44;;;;;;;;;;;;;;;18.19;100.00;99156.03;5028019;28;19917;-71
2023/10/19 11:13:09;;;;;;;;;;;;;;;17.85;100.00;99155.22;5030747;28;19925;-72
2023/10/19 11:15:36;;;;;;;;;;;;;;;17.70;100.00;99158.13;5025233;28;20015;-71
2023/10/19 11:18:02;;;;;;;;;;;;;;;17.75;100.00;99157.50;5008575;28;19975;-70
2023/10/19 11:20:27;;;;;;;;;;;;;;;18.43;100.00;99161.84;5008687;28;20008;-71
2023/10/19 11:22:55;;;;;;;;;;;;;;;18.89;100.00;99150.03;5011644;28;20540;-72
2023/10/19 11:25:21;;;;;;;;;;;;;;;19.03;100.00;99128.22;5012478;28;19936;-70
2023/10/19 11:27:47;;;;;;;;;;;;;;;19.18;100.00;99150.56;4998878;28;20323;-69
2023/10/19 11:30:12;;;;;;;;;;;;;;;18.87;100.00;99148.56;5016126;28;19924;-71
2023/10/19 11:32:38;;;;;;;;;;;;;;;18.81;100.00;99149.41;5015830;28;19920;-71
2023/10/19 11:35:03;;;;;;;;;;;;;;;19.33;100.00;99138.53;5016283;28;20718;-70
2023/10/19 11:37:28;;;;;;;;;;;;;;;18.89;100.00;99130.16;5013081;28;20315;-72
2023/10/19 11:39:54;;;;;;;;;;;;;;;18.83;100.00;99134.56;5011727;28;19931;-74
2023/10/19 11:42:19;;;;;;;;;;;;;;;18.74;100.00;99128.53;5012399;28;19920;-68
2023/10/19 11:44:45;;;;;;;;;;;;;;;18.46;100.00;99123.38;5015092;28;19925;-70
2023/10/19 11:47:10;;;;;;;;;;;;;;;18.06;100.00;99139.78;5013048;28;19925;-72
2023/10/19 11:49:36;;;;;;;;;;;;;;;18.15;100.00;99127.63;5028250;28;19974;-69
2023/10/19 11:52:03;;;;;;;;;;;;;;;18.77;100.00;99123.72;5024861;28;19962;-70
2023/10/19 11:54:29;;;;;;;;;;;;;;;18.96;100.00;99114.66;5013018;28;19971;-68
2023/10/19 11:56:54;;;;;;;;;;;;;;;18.89;100.00;99111.09;5013050;28;20263;-68
2023/10/19 11:59:19;;;;;;;;;;;;;;;18.53;100.00;99109.81;5014851;28;19924;-73
2023/10/19 12:01:44;;;;;;;;;;;;;;;18.11;100.00;99116.38;5012938;28;19976;-70
2023/10/19 12:04:10;;;;;;;;;;;;;;;17.91;100.00;99112.81;5013406;28;20362;-70
2023/10/19 12:06:35;;;;;;;;;;;;;;;17.68;100.00;99106.75;5011221;28;19929;-68
2023/10/19 12:09:11;;;;;;;;;;;;;;;17.59;100.00;99097.16;5013056;28;20340;-71
2023/10/19 12:11:36;;;;;;;;;;;;;;;17.52;100.00;99085.47;5014005;28;20008;-68
2023/10/19 12:14:03;;;;;;;;;;;;;;;17.48;100.00;99101.31;5015263;28;19921;-68
2023/10/19 12:16:29;;;;;;;;;;;;;;;17.47;100.00;99096.09;5012970;28;19921;-71
2023/10/19 12:18:54;;;;;;;;;;;;;;;17.56;100.00;99104.88;5009536;28;20674;-70
2023/10/19 12:21:27;;;;;;;;;;;;;;;17.37;100.00;99100.06;5007784;28;21152;-69
2023/10/19 12:23:55;;;;;;;;;;;;;;;17.39;100.00;99095.25;5013420;28;19921;-67
2023/10/19 12:26:20;;;;;;;;;;;;;;;17.26;100.00;99094.41;5012922;28;20156;-68
2023/10/19 12:28:46;;;;;;;;;;;;;;;17.22;100.00;99094.81;5012354;28;20385;-69
2023/10/19 12:31:12;;;;;;;;;;;;;;;17.07;100.00;99100.44;5008764;28;20015;-71
2023/10/19 12:33:38;;;;;;;;;;;;;;;17.03;100.00;99096.47;5011219;28;19921;-69
2023/10/19 12:36:22;;;;;;;;;;;;;;;16.75;100.00;99108.22;5013220;28;20388;-67
2023/10/19 12:38:48;;;;;;;;;;;;;;;16.45;100.00;99111.22;5014326;28;19925;-68
2023/10/19 12:41:14;;;;;;;;;;;;;;;16.31;100.00;99125.69;5013148;28;20308;-67
2023/10/19 12:43:39;;;;;;;;;;;;;;;16.19;100.00;99112.72;5013739;28;19928;-67
2023/10/19 12:46:08;;;;;;;;;;;;;;;16.18;100.00;99112.91;5015733;28;20016;-68
2023/10/19 12:48:34;;;;;;;;;;;;;;;16.15;100.00;99116.88;5014270;28;19921;-68
2023/10/19 12:51:01;;;;;;;;;;;;;;;16.15;100.00;99119.56;5016371;28;19927;-68